Disclaimer

Please do not use the information listed here in-flight or in-navigation, as they are not provided to us by the airports but are provided by volunteers, so they might be outdated.

Search


Regions


Airport information page

Radio informations:
AREQUIPA TWR - 118.7 MHz
Ground (GND) - 121.9 MHz
AREQUIPA APP - 118.7 MHz

Airport informations:
Latitude: 16° 20' 27.86" S
Longitude: 071° 34' 59.10" W
Elevation: 8405 feet - 2562 meters
Operating hours: Remarks
Operating agency: Military-civil joint use airport
Timezone: UTC-5
Fuel: Jet A1, without icing nhibitor.

100/130 MIL Spec, low lead, aviation gasoline (BLUE)

Runway information:
09/27 - 9777 x 148 feet< - >2980 x 45 meters

Recent METARs:
SPQU 211100Z 33003KT CAVOK 12/00 Q1026 NOSIG RMK PP000
SPQU 211200Z VRB02KT CAVOK 16/M02 Q1026 NOSIG RMK TN. PP000
SPQU 211200Z VRB02KT CAVOK 16/M02 Q1026 NOSIG RMK TN. PP000

Airport on the map: